createdAt,value
2022-11-19T00:00:32.368Z,1006.36
2022-11-19T00:01:32.399Z,1006.36
2022-11-19T00:02:32.433Z,1006.34
2022-11-19T00:03:32.331Z,1006.40
2022-11-19T00:04:32.346Z,1006.39
2022-11-19T00:05:32.296Z,1006.41
2022-11-19T00:06:32.267Z,1006.39
2022-11-19T00:07:32.325Z,1006.41
2022-11-19T00:08:32.307Z,1006.39
2022-11-19T00:09:32.251Z,1006.40
2022-11-19T00:10:32.286Z,1006.38
2022-11-19T00:11:32.266Z,1006.36
2022-11-19T00:12:32.212Z,1006.43
2022-11-19T00:13:32.202Z,1006.46
2022-11-19T00:14:32.180Z,1006.43
2022-11-19T00:15:32.193Z,1006.48
2022-11-19T00:16:32.182Z,1006.46
2022-11-19T00:17:32.163Z,1006.49
2022-11-19T00:18:32.144Z,1006.43
2022-11-19T00:19:32.140Z,1006.47
2022-11-19T00:20:32.092Z,1006.46
2022-11-19T00:21:32.144Z,1006.45
2022-11-19T00:22:32.125Z,1006.44
2022-11-19T00:23:32.080Z,1006.46
2022-11-19T00:24:32.052Z,1006.48
2022-11-19T00:25:32.051Z,1006.47
2022-11-19T00:26:32.041Z,1006.54
2022-11-19T00:27:32.039Z,1006.52
2022-11-19T00:28:32.009Z,1006.53
2022-11-19T00:29:32.026Z,1006.52
2022-11-19T00:30:47.380Z,1006.52
2022-11-19T00:31:32.970Z,1006.52
2022-11-19T00:32:31.969Z,1006.52
2022-11-19T00:33:32.005Z,1006.51
2022-11-19T00:34:31.950Z,1006.52
2022-11-19T00:35:31.948Z,1006.53
2022-11-19T00:36:31.899Z,1006.54
2022-11-19T00:37:31.884Z,1006.51
2022-11-19T00:38:31.890Z,1006.51
2022-11-19T00:39:32.502Z,1006.55
2022-11-19T00:40:31.863Z,1006.52
2022-11-19T00:41:31.812Z,1006.61
2022-11-19T00:42:31.838Z,1006.55
2022-11-19T00:43:31.814Z,1006.55
2022-11-19T00:44:36.999Z,1006.55
2022-11-19T00:45:33.102Z,1006.54
2022-11-19T00:46:31.760Z,1006.54
2022-11-19T00:47:31.728Z,1006.53
2022-11-19T00:48:31.722Z,1006.55
2022-11-19T00:49:31.722Z,1006.56
2022-11-19T00:50:31.755Z,1006.55
2022-11-19T00:51:31.704Z,1006.54
2022-11-19T00:52:31.687Z,1006.55
2022-11-19T00:53:31.671Z,1006.57
2022-11-19T00:54:31.693Z,1006.59
2022-11-19T00:55:31.666Z,1006.60
2022-11-19T00:56:31.655Z,1006.61
2022-11-19T00:57:31.614Z,1006.61
2022-11-19T00:58:31.604Z,1006.64
2022-11-19T00:59:31.589Z,1006.65
2022-11-19T01:00:31.584Z,1006.69
2022-11-19T01:01:31.648Z,1006.68
2022-11-19T01:02:31.563Z,1006.73
2022-11-19T01:03:31.533Z,1006.73
2022-11-19T01:04:31.532Z,1006.72
2022-11-19T01:05:31.559Z,1006.74
2022-11-19T01:06:31.533Z,1006.74
2022-11-19T01:07:31.541Z,1006.74
2022-11-19T01:08:31.491Z,1006.76
2022-11-19T01:09:31.553Z,1006.75
2022-11-19T01:10:31.470Z,1006.81
2022-11-19T01:11:31.451Z,1006.81
2022-11-19T01:12:31.419Z,1006.81
2022-11-19T01:13:31.419Z,1006.87
2022-11-19T01:14:31.430Z,1006.79
2022-11-19T01:15:31.402Z,1006.86
2022-11-19T01:16:31.396Z,1006.85
2022-11-19T01:17:31.409Z,1006.82
2022-11-19T01:18:31.393Z,1006.87
2022-11-19T01:19:31.349Z,1006.93
2022-11-19T01:20:31.370Z,1006.84
2022-11-19T01:21:31.305Z,1006.85
2022-11-19T01:22:31.295Z,1006.90
2022-11-19T01:23:31.269Z,1006.89
2022-11-19T01:24:31.261Z,1006.94
2022-11-19T01:25:31.279Z,1006.97
2022-11-19T01:26:31.306Z,1006.98
2022-11-19T01:27:31.201Z,1006.97
2022-11-19T01:28:31.266Z,1007.00
2022-11-19T01:29:31.199Z,1007.05
2022-11-19T01:30:31.181Z,1007.05
2022-11-19T01:31:31.258Z,1007.07
2022-11-19T01:32:31.168Z,1007.06
2022-11-19T01:33:31.137Z,1007.04
2022-11-19T01:34:31.131Z,1007.14
2022-11-19T01:35:31.131Z,1007.07
2022-11-19T01:36:31.122Z,1007.09
2022-11-19T01:37:31.169Z,1007.06
2022-11-19T01:38:31.078Z,1007.02
2022-11-19T01:39:31.056Z,1007.06
2022-11-19T01:40:31.048Z,1007.05
2022-11-19T01:41:31.026Z,1007.01
2022-11-19T01:42:31.050Z,1007.08
2022-11-19T01:43:31.032Z,1007.07
2022-11-19T01:44:30.991Z,1007.03
2022-11-19T01:45:30.982Z,1007.02
2022-11-19T01:46:30.960Z,1007.04
2022-11-19T01:47:30.961Z,1007.05
2022-11-19T01:48:30.965Z,1007.02
2022-11-19T01:49:30.931Z,1007.03
2022-11-19T01:50:30.910Z,1007.04
2022-11-19T01:51:30.890Z,1007.07
2022-11-19T01:52:30.870Z,1007.04
2022-11-19T01:53:30.883Z,1007.06
2022-11-19T01:54:30.877Z,1007.05
2022-11-19T01:55:30.905Z,1007.12
2022-11-19T01:56:30.876Z,1007.12
2022-11-19T01:57:30.816Z,1007.08
2022-11-19T01:58:30.828Z,1007.17
2022-11-19T01:59:30.797Z,1007.10
2022-11-19T02:00:30.792Z,1007.15
2022-11-19T02:01:30.843Z,1007.10
2022-11-19T02:02:30.757Z,1007.17
2022-11-19T02:03:30.748Z,1007.16
2022-11-19T02:04:30.723Z,1007.19
2022-11-19T02:05:30.728Z,1007.22
2022-11-19T02:06:30.706Z,1007.22
2022-11-19T02:07:30.880Z,1007.22
2022-11-19T02:08:30.679Z,1007.23
2022-11-19T02:09:30.685Z,1007.22
2022-11-19T02:10:30.656Z,1007.25
2022-11-19T02:11:30.632Z,1007.21
2022-11-19T02:12:30.650Z,1007.21
2022-11-19T02:13:30.607Z,1007.20
2022-11-19T02:14:30.612Z,1007.18
2022-11-19T02:15:30.609Z,1007.21
2022-11-19T02:16:30.624Z,1007.21
2022-11-19T02:17:30.583Z,1007.22
2022-11-19T02:18:30.591Z,1007.23
2022-11-19T02:19:30.527Z,1007.23
2022-11-19T02:20:30.539Z,1007.27
2022-11-19T02:21:30.527Z,1007.24
2022-11-19T02:22:30.526Z,1007.27
2022-11-19T02:23:30.473Z,1007.25
2022-11-19T02:24:30.507Z,1007.25
2022-11-19T02:25:30.439Z,1007.31
2022-11-19T02:26:30.459Z,1007.32
2022-11-19T02:27:30.440Z,1007.28
2022-11-19T02:28:30.423Z,1007.30
2022-11-19T02:29:30.409Z,1007.29
2022-11-19T02:30:30.414Z,1007.35
2022-11-19T02:31:30.361Z,1007.33
2022-11-19T02:32:30.378Z,1007.35
2022-11-19T02:33:30.380Z,1007.38
2022-11-19T02:34:30.355Z,1007.33
2022-11-19T02:35:30.323Z,1007.36
2022-11-19T02:36:30.319Z,1007.38
2022-11-19T02:37:30.292Z,1007.35
2022-11-19T02:38:30.305Z,1007.33
2022-11-19T02:39:30.262Z,1007.35
2022-11-19T02:40:30.256Z,1007.36
2022-11-19T02:41:30.260Z,1007.36
2022-11-19T02:42:30.237Z,1007.40
2022-11-19T02:43:30.233Z,1007.40
2022-11-19T02:44:30.247Z,1007.40
2022-11-19T02:45:30.185Z,1007.47
2022-11-19T02:46:30.193Z,1007.49
2022-11-19T02:47:30.237Z,1007.46
2022-11-19T02:48:30.177Z,1007.48
2022-11-19T02:49:30.181Z,1007.51
2022-11-19T02:50:30.137Z,1007.49
2022-11-19T02:51:30.091Z,1007.49
2022-11-19T02:52:30.142Z,1007.55
2022-11-19T02:53:30.069Z,1007.53
2022-11-19T02:54:30.109Z,1007.58
2022-11-19T02:55:30.074Z,1007.54
2022-11-19T02:56:30.063Z,1007.58
2022-11-19T02:57:30.049Z,1007.59
2022-11-19T02:58:30.029Z,1007.58
2022-11-19T02:59:30.070Z,1007.54
2022-11-19T03:00:29.993Z,1007.58
2022-11-19T03:01:30.055Z,1007.55
2022-11-19T03:02:29.964Z,1007.56
2022-11-19T03:03:29.933Z,1007.53
2022-11-19T03:04:29.949Z,1007.57
2022-11-19T03:05:29.918Z,1007.58
2022-11-19T03:06:29.965Z,1007.58
2022-11-19T03:07:29.991Z,1007.60
2022-11-19T03:08:29.945Z,1007.58
2022-11-19T03:09:29.866Z,1007.60
2022-11-19T03:10:29.906Z,1007.65
2022-11-19T03:11:29.863Z,1007.64
2022-11-19T03:12:29.894Z,1007.67
2022-11-19T03:13:29.831Z,1007.66
2022-11-19T03:14:29.822Z,1007.67
2022-11-19T03:15:29.804Z,1007.63
2022-11-19T03:16:29.868Z,1007.63
2022-11-19T03:17:29.805Z,1007.66
2022-11-19T03:18:29.788Z,1007.58
2022-11-19T03:19:29.748Z,1007.62
2022-11-19T03:20:29.721Z,1007.64
2022-11-19T03:21:29.695Z,1007.65
2022-11-19T03:22:29.709Z,1007.62
2022-11-19T03:23:29.705Z,1007.57
2022-11-19T03:24:29.673Z,1007.61
2022-11-19T03:25:29.697Z,1007.60
2022-11-19T03:26:29.652Z,1007.60
2022-11-19T03:27:29.703Z,1007.61
2022-11-19T03:28:29.627Z,1007.55
2022-11-19T03:29:29.604Z,1007.58
2022-11-19T03:30:29.623Z,1007.56
2022-11-19T03:31:29.604Z,1007.57
2022-11-19T03:32:29.574Z,1007.55
2022-11-19T03:33:29.550Z,1007.55
2022-11-19T03:34:29.559Z,1007.56
2022-11-19T03:35:29.552Z,1007.55
2022-11-19T03:36:29.543Z,1007.62
2022-11-19T03:37:29.499Z,1007.69
2022-11-19T03:38:29.495Z,1007.62
2022-11-19T03:39:29.493Z,1007.68
2022-11-19T03:40:29.544Z,1007.65
2022-11-19T03:41:29.452Z,1007.66
2022-11-19T03:42:29.433Z,1007.62
2022-11-19T03:43:29.411Z,1007.69
2022-11-19T03:44:29.423Z,1007.70
2022-11-19T03:45:29.455Z,1007.67
2022-11-19T03:46:29.376Z,1007.64
2022-11-19T03:47:29.367Z,1007.68
2022-11-19T03:48:29.367Z,1007.69
2022-11-19T03:49:29.385Z,1007.71
2022-11-19T03:50:29.410Z,1007.71
2022-11-19T03:51:29.327Z,1007.72
2022-11-19T03:52:29.298Z,1007.75
2022-11-19T03:53:29.305Z,1007.74
2022-11-19T03:54:29.307Z,1007.79
2022-11-19T03:55:29.280Z,1007.78
2022-11-19T03:56:29.277Z,1007.73
2022-11-19T03:57:29.265Z,1007.82
2022-11-19T03:58:29.222Z,1007.77
2022-11-19T03:59:30.151Z,1007.76
2022-11-19T04:00:29.286Z,1007.81
2022-11-19T04:01:29.252Z,1007.83
2022-11-19T04:02:29.168Z,1007.83
2022-11-19T04:03:29.151Z,1007.80
2022-11-19T04:04:29.246Z,1007.79
2022-11-19T04:05:29.153Z,1007.81
2022-11-19T04:06:29.118Z,1007.77
2022-11-19T04:07:29.186Z,1007.79
2022-11-19T04:08:29.142Z,1007.80
2022-11-19T04:09:29.084Z,1007.83
2022-11-19T04:10:29.083Z,1007.85
2022-11-19T04:12:00.349Z,1007.83
2022-11-19T04:13:00.327Z,1007.85
2022-11-19T04:14:00.313Z,1007.85
2022-11-19T04:15:00.318Z,1007.86
2022-11-19T04:16:00.332Z,1007.91
2022-11-19T04:17:00.294Z,1007.90
2022-11-19T04:18:00.282Z,1007.88
2022-11-19T04:19:00.297Z,1007.93
2022-11-19T04:20:00.237Z,1007.89
2022-11-19T04:21:00.271Z,1007.86
2022-11-19T04:22:00.202Z,1007.93
2022-11-19T04:23:00.214Z,1007.94
2022-11-19T04:24:00.224Z,1007.89
2022-11-19T04:25:00.195Z,1007.94
2022-11-19T04:26:00.164Z,1007.95
2022-11-19T04:27:00.174Z,1007.94
2022-11-19T04:28:00.197Z,1007.93
2022-11-19T04:29:00.762Z,1007.97
2022-11-19T04:30:00.134Z,1007.95
2022-11-19T04:31:00.105Z,1007.93
2022-11-19T04:32:00.123Z,1007.93
2022-11-19T04:33:00.097Z,1007.95
2022-11-19T04:34:00.038Z,1007.98
2022-11-19T04:35:00.104Z,1007.99
2022-11-19T04:36:00.044Z,1008.03
2022-11-19T04:37:00.024Z,1008.02
2022-11-19T04:37:59.996Z,1007.98
2022-11-19T04:39:00.041Z,1008.03
2022-11-19T04:40:00.037Z,1008.03
2022-11-19T04:40:59.959Z,1007.98
2022-11-19T04:41:59.935Z,1008.04
2022-11-19T04:42:59.976Z,1008.04
2022-11-19T04:43:59.996Z,1008.01
2022-11-19T04:44:59.908Z,1008.00
2022-11-19T04:45:59.890Z,1007.99
2022-11-19T04:46:59.933Z,1008.03
2022-11-19T04:47:59.956Z,1008.01
2022-11-19T04:48:59.923Z,1008.09
2022-11-19T04:49:59.858Z,1008.11
2022-11-19T04:50:59.860Z,1008.12
2022-11-19T04:51:59.803Z,1008.13
2022-11-19T04:52:59.990Z,1008.15
2022-11-19T04:53:59.870Z,1008.18
2022-11-19T04:54:59.831Z,1008.19
2022-11-19T04:55:59.779Z,1008.19
2022-11-19T04:56:59.771Z,1008.26
2022-11-19T04:57:59.738Z,1008.24
2022-11-19T04:58:59.783Z,1008.21
2022-11-19T04:59:59.741Z,1008.22
2022-11-19T05:00:59.750Z,1008.22
2022-11-19T05:01:59.719Z,1008.28
2022-11-19T05:02:59.702Z,1008.29
2022-11-19T05:03:59.646Z,1008.30
2022-11-19T05:04:59.690Z,1008.24
2022-11-19T05:05:59.632Z,1008.24
2022-11-19T05:06:59.672Z,1008.23
2022-11-19T05:07:59.622Z,1008.25
2022-11-19T05:08:59.602Z,1008.26
2022-11-19T05:09:59.599Z,1008.30
2022-11-19T05:10:59.570Z,1008.28
2022-11-19T05:11:59.568Z,1008.33
2022-11-19T05:12:59.553Z,1008.34
2022-11-19T05:13:59.555Z,1008.35
2022-11-19T05:14:59.513Z,1008.36
2022-11-19T05:15:59.541Z,1008.35
2022-11-19T05:16:59.500Z,1008.37
2022-11-19T05:17:59.521Z,1008.34
2022-11-19T05:18:59.480Z,1008.36
2022-11-19T05:19:59.478Z,1008.40
2022-11-19T05:20:59.451Z,1008.43
2022-11-19T05:21:59.420Z,1008.38
2022-11-19T05:22:59.417Z,1008.38
2022-11-19T05:23:59.424Z,1008.40
2022-11-19T05:24:59.384Z,1008.40
2022-11-19T05:25:59.404Z,1008.41
2022-11-19T05:26:59.377Z,1008.46
2022-11-19T05:27:59.341Z,1008.44
2022-11-19T05:28:59.364Z,1008.44
2022-11-19T05:29:59.346Z,1008.47
2022-11-19T05:30:59.331Z,1008.45
2022-11-19T05:31:59.294Z,1008.47
2022-11-19T05:32:59.273Z,1008.48
2022-11-19T05:33:59.289Z,1008.53
2022-11-19T05:34:59.255Z,1008.53
2022-11-19T05:35:59.299Z,1008.53
2022-11-19T05:36:59.278Z,1008.54
2022-11-19T05:37:59.211Z,1008.56
2022-11-19T05:38:59.207Z,1008.58
2022-11-19T05:39:59.187Z,1008.58
2022-11-19T05:40:59.205Z,1008.55
2022-11-19T05:41:59.167Z,1008.61
2022-11-19T05:42:59.186Z,1008.62
2022-11-19T05:43:59.126Z,1008.60
2022-11-19T05:44:59.145Z,1008.62
2022-11-19T05:45:59.177Z,1008.58
2022-11-19T05:46:59.093Z,1008.60
2022-11-19T05:47:59.101Z,1008.63
2022-11-19T05:48:59.152Z,1008.62
2022-11-19T05:49:59.069Z,1008.62
2022-11-19T05:50:59.073Z,1008.61
2022-11-19T05:51:59.065Z,1008.64
2022-11-19T05:52:59.017Z,1008.71
2022-11-19T05:53:59.028Z,1008.70
2022-11-19T05:54:59.013Z,1008.70
2022-11-19T05:55:58.999Z,1008.72
2022-11-19T05:56:58.966Z,1008.70
2022-11-19T05:57:58.948Z,1008.77
2022-11-19T05:58:58.999Z,1008.74
2022-11-19T05:59:58.924Z,1008.82
2022-11-19T06:00:58.909Z,1008.74
2022-11-19T06:01:58.936Z,1008.77
2022-11-19T06:02:59.062Z,1008.80
2022-11-19T06:03:58.873Z,1008.88
2022-11-19T06:04:58.875Z,1008.80
2022-11-19T06:05:58.857Z,1008.84
2022-11-19T06:06:58.879Z,1008.84
2022-11-19T06:07:58.848Z,1008.81
2022-11-19T06:08:58.857Z,1008.84
2022-11-19T06:09:58.801Z,1008.83
2022-11-19T06:10:58.794Z,1008.85
2022-11-19T06:11:58.779Z,1008.82
2022-11-19T06:12:58.781Z,1008.88
2022-11-19T06:13:58.759Z,1008.89
2022-11-19T06:14:58.772Z,1008.91
2022-11-19T06:15:58.749Z,1008.92
2022-11-19T06:16:58.770Z,1008.91
2022-11-19T06:17:58.679Z,1008.93
2022-11-19T06:18:58.680Z,1008.97
2022-11-19T06:19:58.661Z,1008.99
2022-11-19T06:20:58.667Z,1009.05
2022-11-19T06:21:58.633Z,1009.00
2022-11-19T06:22:58.672Z,1008.95
2022-11-19T06:23:58.681Z,1008.94
2022-11-19T06:24:58.626Z,1008.97
2022-11-19T06:25:58.600Z,1008.99
2022-11-19T06:26:58.587Z,1008.96
2022-11-19T06:27:58.554Z,1008.99
2022-11-19T06:28:58.555Z,1009.01
2022-11-19T06:29:58.533Z,1008.97
2022-11-19T06:30:58.573Z,1009.02
2022-11-19T06:31:58.585Z,1008.97
2022-11-19T06:32:58.508Z,1009.13
2022-11-19T06:33:58.494Z,1009.06
2022-11-19T06:34:58.505Z,1009.10
2022-11-19T06:35:58.479Z,1009.06
2022-11-19T06:36:58.481Z,1009.13
2022-11-19T06:37:58.434Z,1009.08
2022-11-19T06:38:58.443Z,1009.13
2022-11-19T06:39:58.437Z,1009.18
2022-11-19T06:40:58.384Z,1009.11
2022-11-19T06:41:58.405Z,1009.24
2022-11-19T06:42:58.430Z,1009.16
2022-11-19T06:43:58.413Z,1009.16
2022-11-19T06:44:58.334Z,1009.28
2022-11-19T06:45:58.340Z,1009.28
2022-11-19T06:46:58.351Z,1009.28
2022-11-19T06:47:58.356Z,1009.29
2022-11-19T06:48:58.356Z,1009.24
2022-11-19T06:49:58.587Z,1009.28
2022-11-19T06:50:58.282Z,1009.29
2022-11-19T06:51:58.288Z,1009.23
2022-11-19T06:52:58.270Z,1009.28
2022-11-19T06:53:58.279Z,1009.23
2022-11-19T06:54:58.213Z,1009.28
2022-11-19T06:55:58.232Z,1009.29
2022-11-19T06:56:58.257Z,1009.31
2022-11-19T06:57:58.249Z,1009.31
2022-11-19T06:58:58.183Z,1009.32
2022-11-19T06:59:58.169Z,1009.32
2022-11-19T07:00:58.128Z,1009.39
2022-11-19T07:01:58.196Z,1009.42
2022-11-19T07:02:58.128Z,1009.39
2022-11-19T07:03:58.116Z,1009.43
2022-11-19T07:04:58.077Z,1009.42
2022-11-19T07:05:58.133Z,1009.45
2022-11-19T07:06:58.217Z,1009.54
2022-11-19T07:08:02.854Z,1009.52
2022-11-19T07:08:59.015Z,1009.57
2022-11-19T07:10:53.969Z,1009.58
2022-11-19T07:11:53.917Z,1009.61
2022-11-19T07:12:53.853Z,1009.68
2022-11-19T07:13:53.853Z,1009.61
2022-11-19T07:14:53.971Z,1009.61
2022-11-19T07:15:54.929Z,1009.68
2022-11-19T07:16:53.864Z,1009.66
2022-11-19T07:17:53.931Z,1009.65
2022-11-19T07:18:53.803Z,1009.67
2022-11-19T07:19:53.775Z,1009.64
2022-11-19T07:20:53.745Z,1009.65
2022-11-19T07:21:53.741Z,1009.70
2022-11-19T07:22:58.961Z,1009.67
2022-11-19T07:23:54.731Z,1009.70
2022-11-19T07:24:53.692Z,1009.72
2022-11-19T07:25:53.708Z,1009.71
2022-11-19T07:26:53.797Z,1009.76
2022-11-19T07:27:53.656Z,1009.73
2022-11-19T07:29:04.616Z,1009.74
2022-11-19T07:29:53.823Z,1009.76
2022-11-19T07:30:54.019Z,1009.77
2022-11-19T07:31:53.624Z,1009.84
2022-11-19T07:32:53.627Z,1009.77
2022-11-19T07:33:53.585Z,1009.81
2022-11-19T07:34:53.632Z,1009.81
2022-11-19T07:35:53.564Z,1009.85
2022-11-19T07:36:53.564Z,1009.84
2022-11-19T07:37:53.526Z,1009.91
2022-11-19T07:38:53.605Z,1009.94
2022-11-19T07:39:53.499Z,1009.95
2022-11-19T07:40:53.515Z,1009.89
2022-11-19T07:41:53.516Z,1009.92
2022-11-19T07:42:53.491Z,1009.96
2022-11-19T07:44:02.366Z,1009.92
2022-11-19T07:44:54.999Z,1009.96
2022-11-19T07:45:53.459Z,1009.99
2022-11-19T07:46:53.472Z,1009.98
2022-11-19T07:47:53.418Z,1010.01
2022-11-19T07:48:53.421Z,1010.01
2022-11-19T07:49:53.483Z,1010.03
2022-11-19T07:50:56.426Z,1010.01
2022-11-19T07:51:53.454Z,1010.03
2022-11-19T07:52:53.390Z,1010.02
2022-11-19T07:53:53.324Z,1010.03
2022-11-19T07:55:05.589Z,1010.06
2022-11-19T07:56:03.247Z,1010.07
2022-11-19T07:57:02.202Z,1010.08
2022-11-19T07:58:01.190Z,1010.08
2022-11-19T07:58:53.516Z,1010.08
2022-11-19T07:59:53.284Z,1010.09
2022-11-19T08:00:53.329Z,1010.05
2022-11-19T08:01:53.343Z,1010.01
2022-11-19T08:02:53.354Z,1010.02
2022-11-19T08:03:56.262Z,1010.03
2022-11-19T08:04:53.170Z,1010.03
2022-11-19T08:05:53.203Z,1010.07
2022-11-19T08:06:53.258Z,1010.10
2022-11-19T08:07:53.219Z,1010.13
2022-11-19T08:08:53.152Z,1010.15
2022-11-19T08:09:53.165Z,1010.15
2022-11-19T08:10:53.139Z,1010.24
2022-11-19T08:11:53.142Z,1010.23
2022-11-19T08:12:53.123Z,1010.27
2022-11-19T08:13:53.079Z,1010.25
2022-11-19T08:14:53.073Z,1010.33
2022-11-19T08:15:53.021Z,1010.33
2022-11-19T08:16:53.022Z,1010.32
2022-11-19T08:17:53.065Z,1010.29
2022-11-19T08:18:53.031Z,1010.30
2022-11-19T08:19:52.981Z,1010.32
2022-11-19T08:20:52.995Z,1010.33
2022-11-19T08:21:52.961Z,1010.34
2022-11-19T08:22:53.022Z,1010.33
2022-11-19T08:23:53.050Z,1010.28
2022-11-19T08:24:52.991Z,1010.31
2022-11-19T08:25:52.912Z,1010.32
2022-11-19T08:26:52.902Z,1010.33
2022-11-19T08:27:52.912Z,1010.32
2022-11-19T08:28:52.883Z,1010.36
2022-11-19T08:29:52.911Z,1010.37
2022-11-19T08:30:52.871Z,1010.46
2022-11-19T08:31:52.834Z,1010.32
2022-11-19T08:32:52.830Z,1010.41
2022-11-19T08:33:52.811Z,1010.37
2022-11-19T08:34:52.812Z,1010.40
2022-11-19T08:35:52.783Z,1010.39
2022-11-19T08:36:52.822Z,1010.37
2022-11-19T08:37:52.750Z,1010.45
2022-11-19T08:38:52.743Z,1010.42
2022-11-19T08:39:52.717Z,1010.40
2022-11-19T08:40:52.703Z,1010.38
2022-11-19T08:41:52.724Z,1010.37
2022-11-19T08:42:52.731Z,1010.36
2022-11-19T08:43:52.674Z,1010.38
2022-11-19T08:44:52.673Z,1010.43
2022-11-19T08:45:52.664Z,1010.43
2022-11-19T08:46:52.645Z,1010.43
2022-11-19T08:47:52.644Z,1010.41
2022-11-19T08:48:52.643Z,1010.49
2022-11-19T08:49:52.583Z,1010.51
2022-11-19T08:50:52.588Z,1010.55
2022-11-19T08:51:52.593Z,1010.52
2022-11-19T08:52:52.569Z,1010.57
2022-11-19T08:53:52.560Z,1010.61
2022-11-19T08:54:52.553Z,1010.64
2022-11-19T08:55:52.505Z,1010.59
2022-11-19T08:56:52.515Z,1010.62
2022-11-19T08:57:52.515Z,1010.61
2022-11-19T08:58:52.513Z,1010.66
2022-11-19T08:59:52.453Z,1010.63
2022-11-19T09:00:52.491Z,1010.64
2022-11-19T09:01:52.426Z,1010.65
2022-11-19T09:02:52.446Z,1010.67
2022-11-19T09:03:52.387Z,1010.66
2022-11-19T09:04:52.407Z,1010.67
2022-11-19T09:05:52.406Z,1010.69
2022-11-19T09:06:52.385Z,1010.68
2022-11-19T09:07:52.375Z,1010.74
2022-11-19T09:08:52.367Z,1010.70
2022-11-19T09:09:52.337Z,1010.75
2022-11-19T09:10:52.387Z,1010.78
2022-11-19T09:11:52.327Z,1010.77
2022-11-19T09:12:52.316Z,1010.78
2022-11-19T09:13:52.286Z,1010.84
2022-11-19T09:14:52.259Z,1010.82
2022-11-19T09:15:52.276Z,1010.84
2022-11-19T09:16:52.268Z,1010.88
2022-11-19T09:17:52.231Z,1010.96
2022-11-19T09:18:52.229Z,1010.93
2022-11-19T09:19:52.208Z,1010.95
2022-11-19T09:20:52.176Z,1010.91
2022-11-19T09:21:52.175Z,1010.96
2022-11-19T09:22:52.151Z,1010.95
2022-11-19T09:23:52.155Z,1010.93
2022-11-19T09:24:52.139Z,1010.95
2022-11-19T09:25:52.109Z,1010.96
2022-11-19T09:26:53.155Z,1010.98
2022-11-19T09:27:52.098Z,1010.99
2022-11-19T09:28:52.085Z,1010.97
2022-11-19T09:29:52.058Z,1010.98
2022-11-19T09:30:52.068Z,1010.98
2022-11-19T09:31:52.037Z,1010.93
2022-11-19T09:32:52.038Z,1010.97
2022-11-19T09:33:52.048Z,1010.95
2022-11-19T09:34:51.998Z,1010.98
2022-11-19T09:36:00.995Z,1010.95
2022-11-19T09:36:59.724Z,1011.01
2022-11-19T09:37:51.983Z,1010.98
2022-11-19T09:38:51.983Z,1011.02
2022-11-19T09:39:52.011Z,1011.01
2022-11-19T09:40:51.921Z,1011.00
2022-11-19T09:41:51.944Z,1011.02
2022-11-19T09:42:52.061Z,1011.04
2022-11-19T09:43:51.890Z,1011.02
2022-11-19T09:44:51.869Z,1011.02
2022-11-19T09:45:51.872Z,1011.01
2022-11-19T09:46:51.823Z,1011.03
2022-11-19T09:47:51.812Z,1011.05
2022-11-19T09:48:51.840Z,1011.03
2022-11-19T09:49:51.918Z,1011.08
2022-11-19T09:50:53.437Z,1011.09
2022-11-19T09:51:51.795Z,1011.04
2022-11-19T09:52:51.755Z,1011.07
2022-11-19T09:53:51.741Z,1011.13
2022-11-19T09:54:51.711Z,1011.14
2022-11-19T09:55:51.743Z,1011.14
2022-11-19T09:56:51.759Z,1011.24
2022-11-19T09:57:51.716Z,1011.23
2022-11-19T09:58:51.673Z,1011.25
2022-11-19T09:59:51.662Z,1011.24
2022-11-19T10:00:51.706Z,1011.24
2022-11-19T10:01:51.692Z,1011.26
2022-11-19T10:02:51.694Z,1011.25
2022-11-19T10:03:51.729Z,1011.29
2022-11-19T10:04:51.574Z,1011.28
2022-11-19T10:05:51.584Z,1011.27
2022-11-19T10:06:51.584Z,1011.31
2022-11-19T10:07:51.575Z,1011.32
2022-11-19T10:08:51.543Z,1011.34
2022-11-19T10:09:51.563Z,1011.39
2022-11-19T10:10:51.516Z,1011.35
2022-11-19T10:11:51.500Z,1011.38
2022-11-19T10:12:51.489Z,1011.38
2022-11-19T10:13:55.175Z,1011.38
2022-11-19T10:14:51.472Z,1011.35
2022-11-19T10:15:51.508Z,1011.33
2022-11-19T10:16:51.473Z,1011.35
2022-11-19T10:17:51.553Z,1011.32
2022-11-19T10:18:51.541Z,1011.36
2022-11-19T10:19:51.707Z,1011.32
2022-11-19T10:20:51.439Z,1011.32
2022-11-19T10:21:51.370Z,1011.32
2022-11-19T10:22:56.966Z,1011.29
2022-11-19T10:23:52.354Z,1011.30
2022-11-19T10:24:51.324Z,1011.29
2022-11-19T10:25:51.342Z,1011.33
2022-11-19T10:26:51.321Z,1011.31
2022-11-19T10:27:51.325Z,1011.31
2022-11-19T10:28:51.296Z,1011.33
2022-11-19T10:29:51.324Z,1011.33
2022-11-19T10:30:51.350Z,1011.31
2022-11-19T10:31:51.245Z,1011.30
2022-11-19T10:32:51.254Z,1011.35
2022-11-19T10:33:51.289Z,1011.35
2022-11-19T10:34:51.184Z,1011.34
2022-11-19T10:35:51.205Z,1011.35
2022-11-19T10:36:51.163Z,1011.37
2022-11-19T10:37:51.166Z,1011.39
2022-11-19T10:38:51.460Z,1011.42
2022-11-19T10:39:51.165Z,1011.42
2022-11-19T10:40:51.122Z,1011.39
2022-11-19T10:41:51.116Z,1011.44
2022-11-19T10:42:51.085Z,1011.44
2022-11-19T10:43:51.085Z,1011.41
2022-11-19T10:44:51.075Z,1011.40
2022-11-19T10:45:51.057Z,1011.43
2022-11-19T10:46:51.040Z,1011.43
2022-11-19T10:47:51.016Z,1011.43
2022-11-19T10:48:51.036Z,1011.45
2022-11-19T10:49:51.029Z,1011.46
2022-11-19T10:50:50.989Z,1011.42
2022-11-19T10:51:51.009Z,1011.44
2022-11-19T10:52:51.009Z,1011.43
2022-11-19T10:53:50.956Z,1011.44
2022-11-19T10:54:50.960Z,1011.40
2022-11-19T10:55:54.406Z,1011.40
2022-11-19T10:56:50.904Z,1011.41
2022-11-19T10:57:50.911Z,1011.41
2022-11-19T10:58:50.888Z,1011.41
2022-11-19T10:59:50.867Z,1011.40
2022-11-19T11:00:50.917Z,1011.35
2022-11-19T11:01:50.846Z,1011.33
2022-11-19T11:02:50.831Z,1011.33
2022-11-19T11:03:50.843Z,1011.31
2022-11-19T11:04:50.869Z,1011.30
2022-11-19T11:05:50.800Z,1011.30
2022-11-19T11:06:50.769Z,1011.33
2022-11-19T11:07:51.230Z,1011.26
2022-11-19T11:08:50.768Z,1011.33
2022-11-19T11:09:50.769Z,1011.31
2022-11-19T11:10:50.729Z,1011.30
2022-11-19T11:11:50.705Z,1011.32
2022-11-19T11:12:50.729Z,1011.29
2022-11-19T11:13:50.669Z,1011.28
2022-11-19T11:14:50.690Z,1011.27
2022-11-19T11:15:50.689Z,1011.24
2022-11-19T11:16:50.628Z,1011.29
2022-11-19T11:17:50.666Z,1011.29
2022-11-19T11:18:50.612Z,1011.24
2022-11-19T11:19:50.619Z,1011.25
2022-11-19T11:20:50.602Z,1011.21
2022-11-19T11:21:50.610Z,1011.17
2022-11-19T11:22:50.550Z,1011.19
2022-11-19T11:23:50.590Z,1011.18
2022-11-19T11:24:50.561Z,1011.21
2022-11-19T11:25:50.559Z,1011.17
2022-11-19T11:26:50.501Z,1011.14
2022-11-19T11:27:50.512Z,1011.14
2022-11-19T11:28:50.492Z,1011.15
2022-11-19T11:29:50.731Z,1011.16
2022-11-19T11:30:50.452Z,1011.16
2022-11-19T11:31:50.453Z,1011.20
2022-11-19T11:32:50.444Z,1011.18
2022-11-19T11:33:50.403Z,1011.19
2022-11-19T11:34:50.410Z,1011.17
2022-11-19T11:35:50.465Z,1011.17
2022-11-19T11:36:50.373Z,1011.18
2022-11-19T11:37:50.407Z,1011.18
2022-11-19T11:38:50.333Z,1011.21
2022-11-19T11:39:50.325Z,1011.20
2022-11-19T11:40:56.246Z,1011.12
2022-11-19T11:42:05.501Z,1011.20
2022-11-19T11:42:51.314Z,1011.18
2022-11-19T11:43:50.278Z,1011.20
2022-11-19T11:44:50.272Z,1011.20
2022-11-19T11:45:50.336Z,1011.25
2022-11-19T11:46:50.237Z,1011.22
2022-11-19T11:47:59.655Z,1011.19
2022-11-19T11:49:04.724Z,1011.23
2022-11-19T11:49:51.270Z,1011.26
2022-11-19T11:50:50.189Z,1011.26
2022-11-19T11:51:50.263Z,1011.24
2022-11-19T11:52:50.298Z,1011.24
2022-11-19T11:53:50.211Z,1011.23
2022-11-19T11:54:50.143Z,1011.27
2022-11-19T11:55:50.119Z,1011.24
2022-11-19T11:56:50.102Z,1011.24
2022-11-19T11:57:50.160Z,1011.25
2022-11-19T11:58:50.090Z,1011.26
2022-11-19T11:59:50.056Z,1011.19
2022-11-19T12:00:50.070Z,1011.19
2022-11-19T12:01:50.024Z,1011.16
2022-11-19T12:02:50.126Z,1011.16
2022-11-19T12:03:55.149Z,1011.16
2022-11-19T12:04:51.000Z,1011.14
2022-11-19T12:05:50.023Z,1011.15
2022-11-19T12:06:49.971Z,1011.07